Time;durP1;ratioP1;P1;durP2;ratioP2;P2;SDS_P1;SDS_P2;PMS_P1;PMS_P2;Temp;Humidity;BMP_temperature;BMP_pressure;BME280_temperature;BME280_humidity;BME280_pressure;Samples;Min_cycle;Max_cycle;Signal;HPM_P1;HPM_P2
2023/08/05 00:02:44;;;;;;;4.10;2.93;;;;;;;14.84;100.00;97276.94;6206802;28;20254;-46
2023/08/05 00:05:47;;;;;;;3.60;2.60;;;;;;;14.87;100.00;97272.91;6205692;28;20247;-45
2023/08/05 00:08:49;;;;;;;3.30;2.70;;;;;;;14.89;100.00;97268.06;6211064;28;20323;-44
2023/08/05 00:11:52;;;;;;;2.40;2.10;;;;;;;14.87;100.00;97279.06;6206109;28;20228;-45
2023/08/05 00:14:54;;;;;;;3.53;2.40;;;;;;;14.76;100.00;97245.34;6206430;28;20724;-44
2023/08/05 00:17:57;;;;;;;2.97;2.60;;;;;;;14.83;100.00;97259.25;6205791;28;20234;-48
2023/08/05 00:20:59;;;;;;;4.07;2.10;;;;;;;14.67;100.00;97233.63;6200244;28;20224;-48
2023/08/05 00:24:02;;;;;;;3.80;2.20;;;;;;;14.70;100.00;97222.34;6209068;28;20228;-44
2023/08/05 00:27:04;;;;;;;3.43;2.30;;;;;;;14.64;100.00;97199.34;6203529;28;20283;-49
2023/08/05 00:30:07;;;;;;;4.40;2.20;;;;;;;14.65;100.00;97212.47;6204027;28;20728;-49
2023/08/05 00:33:09;;;;;;;2.10;1.90;;;;;;;14.79;100.00;97250.16;6190344;28;20217;-50
2023/08/05 00:36:14;;;;;;;3.30;2.03;;;;;;;14.77;100.00;97243.47;6211986;28;20220;-50
2023/08/05 00:39:18;;;;;;;4.47;1.97;;;;;;;14.78;100.00;97228.97;6207962;28;20274;-49
2023/08/05 00:42:20;;;;;;;2.50;2.00;;;;;;;14.76;100.00;97226.59;6205385;28;20306;-48
2023/08/05 00:45:23;;;;;;;3.37;2.00;;;;;;;14.76;100.00;97223.09;6204795;28;20224;-45
2023/08/05 00:48:26;;;;;;;2.30;1.80;;;;;;;14.75;100.00;97214.25;6205204;28;20239;-47
2023/08/05 00:51:28;;;;;;;6.57;2.10;;;;;;;14.75;100.00;97208.09;6204603;28;20234;-48
2023/08/05 00:54:31;;;;;;;3.90;2.10;;;;;;;14.73;100.00;97195.00;6212316;28;20235;-49
2023/08/05 00:57:34;;;;;;;3.07;1.93;;;;;;;14.70;100.00;97180.25;6199504;28;20257;-49
2023/08/05 01:00:36;;;;;;;2.30;2.10;;;;;;;14.68;100.00;97182.41;6204239;28;20255;-46
2023/08/05 01:03:39;;;;;;;2.27;2.07;;;;;;;14.69;100.00;97205.47;6183630;28;20235;-46
2023/08/05 01:06:43;;;;;;;3.23;2.30;;;;;;;14.73;100.00;97212.94;6204492;28;20228;-47
2023/08/05 01:09:46;;;;;;;2.00;1.90;;;;;;;14.73;100.00;97221.81;6201131;28;20851;-47
2023/08/05 01:12:49;;;;;;;2.53;1.70;;;;;;;14.74;100.00;97231.44;6205117;28;20227;-48
2023/08/05 01:15:51;;;;;;;2.20;1.97;;;;;;;14.75;100.00;97230.34;6204142;28;20228;-48
2023/08/05 01:18:57;;;;;;;2.50;2.03;;;;;;;14.77;100.00;97222.03;6187160;28;20371;-48
2023/08/05 01:22:43;;;;;;;2.20;1.83;;;;;;;14.77;100.00;97230.88;6203647;28;20713;-47
2023/08/05 01:25:46;;;;;;;3.67;2.03;;;;;;;14.76;100.00;97202.44;6077370;29;20255;-55
2023/08/05 01:28:49;;;;;;;2.97;1.90;;;;;;;14.73;100.00;97175.41;6066007;29;20291;-45
2023/08/05 01:31:53;;;;;;;7.13;2.30;;;;;;;14.67;100.00;97145.16;6074919;29;20239;-45
2023/08/05 01:34:57;;;;;;;3.43;2.40;;;;;;;14.52;100.00;97123.84;6076067;29;20279;-49
2023/08/05 01:38:00;;;;;;;2.47;1.80;;;;;;;14.42;100.00;97109.41;6073575;29;20240;-47
2023/08/05 01:41:02;;;;;;;2.30;2.10;;;;;;;14.66;100.00;97146.22;6081093;29;20278;-46
2023/08/05 01:44:04;;;;;;;3.07;2.50;;;;;;;14.66;100.00;97146.22;6072067;29;20247;-45
2023/08/05 01:47:07;;;;;;;2.53;2.03;;;;;;;14.66;100.00;97149.72;6063663;29;20231;-47
2023/08/05 01:50:09;;;;;;;3.40;2.07;;;;;;;14.66;100.00;97160.44;6072380;29;20244;-46
2023/08/05 01:53:12;;;;;;;2.17;1.60;;;;;;;14.68;100.00;97182.41;6075000;29;20231;-46
2023/08/05 01:56:14;;;;;;;2.67;1.90;;;;;;;14.69;100.00;97185.91;6145108;28;20236;-44
2023/08/05 01:59:17;;;;;;;2.10;1.70;;;;;;;14.71;100.00;97181.03;6201802;28;20231;-44
2023/08/05 02:02:19;;;;;;;2.87;2.03;;;;;;;14.74;100.00;97160.94;6202311;28;20220;-46
2023/08/05 02:05:21;;;;;;;2.90;2.00;;;;;;;14.69;100.00;97157.22;6204206;28;20716;-45
2023/08/05 02:08:24;;;;;;;2.77;1.80;;;;;;;14.70;100.00;97161.47;6206019;28;20321;-48
2023/08/05 02:11:26;;;;;;;2.03;1.60;;;;;;;14.71;100.00;97164.97;6208866;28;20231;-45
2023/08/05 02:14:29;;;;;;;2.70;1.50;;;;;;;14.71;100.00;97138.94;6183117;28;20596;-49
2023/08/05 02:17:31;;;;;;;5.27;1.90;;;;;;;14.73;100.00;97127.13;6204309;28;20235;-45
2023/08/05 02:20:37;;;;;;;2.33;1.50;;;;;;;14.70;100.00;97129.31;6203631;28;20236;-47
2023/08/05 02:23:39;;;;;;;2.50;2.00;;;;;;;14.70;100.00;97131.19;6203644;28;20381;-44
2023/08/05 02:26:42;;;;;;;2.67;2.00;;;;;;;14.71;100.00;97133.59;6207466;28;20232;-47
2023/08/05 02:29:45;;;;;;;4.77;1.70;;;;;;;14.68;100.00;97126.13;6202292;28;20231;-44
2023/08/05 02:32:47;;;;;;;4.13;2.00;;;;;;;14.67;100.00;97099.56;6203265;28;20232;-44
2023/08/05 02:35:56;;;;;;;4.27;2.07;;;;;;;14.60;100.00;97089.19;6203045;28;20261;-49
2023/08/05 02:38:58;;;;;;;3.50;2.00;;;;;;;14.60;100.00;97083.03;6201869;28;20237;-45
2023/08/05 02:42:01;;;;;;;3.40;1.83;;;;;;;14.56;100.00;97074.75;6208889;28;20362;-47
2023/08/05 02:45:04;;;;;;;2.97;1.80;;;;;;;14.53;100.00;97069.97;6170220;28;20221;-49
2023/08/05 02:48:07;;;;;;;4.23;1.93;;;;;;;14.52;100.00;97089.78;6204013;28;20236;-44
2023/08/05 02:51:09;;;;;;;5.17;1.90;;;;;;;14.51;100.00;97090.88;6198365;28;20599;-47
2023/08/05 02:54:13;;;;;;;2.90;1.90;;;;;;;14.50;100.00;97088.47;6196749;28;20391;-50
2023/08/05 02:57:15;;;;;;;3.77;2.00;;;;;;;14.46;100.00;97072.91;6208365;28;20209;-48
2023/08/05 03:00:18;;;;;;;6.10;1.90;;;;;;;14.36;100.00;97061.50;6184881;28;20590;-45
2023/08/05 03:03:20;;;;;;;2.53;1.80;;;;;;;14.46;100.00;97074.81;6203389;28;20220;-46
2023/08/05 03:06:22;;;;;;;4.03;1.87;;;;;;;14.47;100.00;97071.03;6195262;28;20228;-47
2023/08/05 03:09:26;;;;;;;3.33;2.00;;;;;;;14.44;100.00;97063.56;6203086;28;20233;-48
2023/08/05 03:12:28;;;;;;;2.63;1.70;;;;;;;14.34;100.00;97055.63;6184380;28;20303;-45
2023/08/05 03:15:31;;;;;;;2.77;1.70;;;;;;;14.41;100.00;97072.16;6184066;28;20702;-48
2023/08/05 03:18:38;;;;;;;3.37;2.17;;;;;;;14.27;100.00;97042.53;6204525;28;20221;-45
2023/08/05 03:21:41;;;;;;;3.07;1.70;;;;;;;14.43;100.00;97062.78;6203735;28;20236;-46
2023/08/05 03:24:44;;;;;;;2.30;1.90;;;;;;;14.43;100.00;97078.03;6188474;28;20398;-46
2023/08/05 03:27:46;;;;;;;2.73;2.17;;;;;;;14.46;100.00;97077.47;6208874;28;20611;-44
2023/08/05 03:30:49;;;;;;;3.33;2.17;;;;;;;14.45;100.00;97074.00;6204938;28;20235;-46
2023/08/05 03:33:56;;;;;;;3.83;2.27;;;;;;;14.36;100.00;97062.28;6186855;28;20243;-44
2023/08/05 03:37:02;;;;;;;4.57;2.37;;;;;;;14.44;100.00;97075.09;6207024;28;20323;-46
2023/08/05 03:40:05;;;;;;;3.67;2.20;;;;;;;14.47;100.00;97068.34;6206782;28;20240;-45
2023/08/05 03:43:09;;;;;;;4.70;2.07;;;;;;;14.50;100.00;97072.41;6185029;28;20830;-47
2023/08/05 03:46:12;;;;;;;4.13;2.23;;;;;;;14.51;100.00;97066.75;6205047;28;20228;-45
2023/08/05 03:49:15;;;;;;;4.37;2.57;;;;;;;14.51;100.00;97053.34;6202542;28;20286;-44
2023/08/05 03:52:17;;;;;;;2.23;2.00;;;;;;;14.52;100.00;97052.25;6198303;28;20375;-45
2023/08/05 03:55:20;;;;;;;3.47;2.63;;;;;;;14.54;100.00;97052.00;6204491;28;20233;-45
2023/08/05 03:58:23;;;;;;;6.67;2.57;;;;;;;14.56;100.00;97037.22;6184447;28;20235;-47
2023/08/05 04:01:28;;;;;;;3.93;2.33;;;;;;;14.54;100.00;97035.91;6187462;28;20240;-45
2023/08/05 04:04:31;;;;;;;4.13;2.30;;;;;;;14.55;100.00;97032.94;6190744;28;20236;-45
2023/08/05 04:07:34;;;;;;;3.60;2.33;;;;;;;14.54;100.00;97023.31;6187178;28;20315;-44
2023/08/05 04:10:38;;;;;;;3.77;2.47;;;;;;;14.60;100.00;97016.00;6205766;28;20231;-45
2023/08/05 04:13:42;;;;;;;5.83;3.07;;;;;;;14.61;100.00;97005.00;6205697;28;20232;-45
2023/08/05 04:16:44;;;;;;;4.33;2.80;;;;;;;14.62;100.00;97009.28;6205964;28;20721;-49
2023/08/05 04:19:47;;;;;;;3.97;3.10;;;;;;;14.62;100.00;97011.16;6189225;28;20243;-45
2023/08/05 04:22:50;;;;;;;3.73;2.87;;;;;;;14.66;100.00;97009.50;6204336;28;20726;-46
2023/08/05 04:25:52;;;;;;;4.90;3.30;;;;;;;14.69;100.00;97006.28;6205850;28;20231;-44
2023/08/05 04:28:55;;;;;;;5.27;3.07;;;;;;;14.71;100.00;97010.25;6208929;28;20315;-48
2023/08/05 04:31:57;;;;;;;3.50;3.20;;;;;;;14.66;100.00;97006.84;6204249;28;20235;-44
2023/08/05 04:34:59;;;;;;;3.40;3.10;;;;;;;14.75;100.00;97025.78;6205575;28;20239;-45
2023/08/05 04:38:02;;;;;;;6.53;3.77;;;;;;;14.66;100.00;97023.72;6204419;28;20282;-44
2023/08/05 04:41:04;;;;;;;4.80;3.47;;;;;;;14.82;100.00;97047.69;6204914;28;20247;-44
2023/08/05 04:44:06;;;;;;;8.03;4.43;;;;;;;14.77;100.00;97047.72;6210436;28;20229;-47
2023/08/05 04:47:12;;;;;;;3.40;3.20;;;;;;;14.87;100.00;97058.34;6203451;28;20289;-49
2023/08/05 04:50:14;;;;;;;3.90;3.50;;;;;;;14.89;100.00;97062.38;6203398;28;20601;-46
2023/08/05 04:53:18;;;;;;;3.40;3.10;;;;;;;14.91;100.00;97054.81;6183125;28;20224;-48
2023/08/05 04:56:24;;;;;;;3.63;3.20;;;;;;;14.95;100.00;97063.09;6182041;28;20220;-44
2023/08/05 04:59:27;;;;;;;5.67;3.87;;;;;;;14.94;100.00;97064.19;6209944;28;20233;-45
2023/08/05 05:02:29;;;;;;;7.03;4.13;;;;;;;14.89;100.00;97048.94;6202580;28;20239;-45
2023/08/05 05:05:33;;;;;;;4.30;3.47;;;;;;;14.84;100.00;97046.31;6203622;28;20297;-47
2023/08/05 05:08:35;;;;;;;5.43;3.20;;;;;;;14.88;100.00;97038.53;6204463;28;20232;-45
2023/08/05 05:11:38;;;;;;;5.30;3.97;;;;;;;14.94;100.00;97014.03;6204816;28;20239;-44
2023/08/05 05:14:46;;;;;;;5.13;3.33;;;;;;;14.93;100.00;97007.06;6203462;28;20236;-46
2023/08/05 05:17:51;;;;;;;6.50;4.23;;;;;;;14.95;100.00;97022.88;6202494;28;20328;-45
2023/08/05 05:20:54;;;;;;;7.87;4.00;;;;;;;14.96;100.00;97021.78;6203904;28;20251;-44
2023/08/05 05:23:57;;;;;;;5.27;3.83;;;;;;;14.98;100.00;97008.91;6203213;28;20243;-47
2023/08/05 05:26:59;;;;;;;4.00;3.60;;;;;;;15.04;100.00;97013.13;6180961;28;20764;-45
2023/08/05 05:30:02;;;;;;;4.10;3.70;;;;;;;15.06;100.00;96992.16;6209314;28;20224;-46
2023/08/05 05:33:05;;;;;;;5.33;4.30;;;;;;;15.07;100.00;96983.00;6202149;28;20310;-44
2023/08/05 05:36:07;;;;;;;4.33;3.93;;;;;;;15.10;100.00;96995.88;6206469;28;20224;-43
2023/08/05 05:39:09;;;;;;;4.20;3.77;;;;;;;15.21;100.00;96991.16;6208424;28;20216;-47
2023/08/05 05:42:11;;;;;;;4.23;3.70;;;;;;;15.15;100.00;97003.84;6188465;28;20232;-47
2023/08/05 05:45:14;;;;;;;6.23;3.33;;;;;;;15.16;100.00;97012.69;6206924;28;20349;-44
2023/08/05 05:48:17;;;;;;;4.30;3.73;;;;;;;15.19;100.00;97014.81;6202992;28;20343;-46
2023/08/05 05:51:20;;;;;;;6.07;3.67;;;;;;;15.19;100.00;97025.53;6207461;28;20213;-49
2023/08/05 05:54:22;;;;;;;4.37;3.23;;;;;;;15.27;100.00;97010.66;6203927;28;20271;-46
2023/08/05 05:57:24;;;;;;;3.27;2.97;;;;;;;15.25;100.00;97012.84;6204918;28;20231;-48
2023/08/05 06:00:27;;;;;;;3.07;2.83;;;;;;;15.22;100.00;97019.59;6214489;28;20220;-44
2023/08/05 06:03:33;;;;;;;3.37;2.40;;;;;;;15.26;100.00;97014.44;6203469;28;20307;-47
2023/08/05 06:06:36;;;;;;;2.20;2.00;;;;;;;15.23;100.00;97011.28;6183310;28;20227;-46
2023/08/05 06:09:39;;;;;;;3.77;2.57;;;;;;;15.15;100.00;97008.41;6203394;28;20227;-46
2023/08/05 06:12:44;;;;;;;2.87;2.67;;;;;;;15.19;100.00;97020.97;6200486;28;20232;-46
2023/08/05 06:15:46;;;;;;;2.70;2.50;;;;;;;15.17;100.00;97008.91;6209123;28;20247;-48
2023/08/05 06:18:49;;;;;;;2.67;2.47;;;;;;;15.15;100.00;97013.78;6204231;28;20235;-47
2023/08/05 06:21:51;;;;;;;3.30;2.60;;;;;;;15.17;100.00;97030.38;6199323;28;20243;-43
2023/08/05 06:24:54;;;;;;;3.90;2.60;;;;;;;15.07;100.00;97017.88;6203677;28;20334;-44
2023/08/05 06:27:56;;;;;;;3.80;2.90;;;;;;;15.16;100.00;97026.09;6200927;28;20232;-45
2023/08/05 06:30:58;;;;;;;2.80;2.60;;;;;;;15.13;100.00;97010.59;6202047;28;20236;-44
2023/08/05 06:34:01;;;;;;;3.00;2.70;;;;;;;15.12;100.00;97009.81;6203817;28;20223;-45
2023/08/05 06:37:04;;;;;;;3.70;2.70;;;;;;;15.12;100.00;97004.44;6204804;28;20339;-45
2023/08/05 06:40:06;;;;;;;3.70;2.80;;;;;;;15.10;100.00;97011.97;6202612;28;20669;-45
2023/08/05 06:43:09;;;;;;;3.13;2.80;;;;;;;14.97;100.00;96996.56;6202697;28;20950;-48
2023/08/05 06:46:11;;;;;;;2.87;2.67;;;;;;;15.09;100.00;97010.38;6206464;28;20243;-45
2023/08/05 06:49:14;;;;;;;3.60;3.30;;;;;;;15.10;100.00;96989.69;6208778;28;20240;-46
2023/08/05 06:52:16;;;;;;;4.23;2.90;;;;;;;15.12;100.00;96969.56;6208299;28;20271;-48
2023/08/05 06:55:19;;;;;;;4.70;3.27;;;;;;;15.17;100.00;96987.44;6207055;28;20267;-47
2023/08/05 06:58:22;;;;;;;3.50;2.73;;;;;;;15.17;100.00;96977.53;6207734;28;20593;-48
2023/08/05 07:01:24;;;;;;;3.33;3.03;;;;;;;15.18;100.00;96989.06;6204590;28;20236;-45
2023/08/05 07:04:27;;;;;;;2.90;2.60;;;;;;;15.21;100.00;96996.53;6207232;28;20238;-48
2023/08/05 07:07:31;;;;;;;3.43;3.13;;;;;;;15.21;100.00;96994.63;6207588;28;20236;-45
2023/08/05 07:10:33;;;;;;;3.00;2.70;;;;;;;15.15;100.00;96978.91;6204473;28;20225;-45
2023/08/05 07:13:35;;;;;;;4.73;2.60;;;;;;;15.22;100.00;96993.56;6207067;28;20217;-47
2023/08/05 07:16:38;;;;;;;3.27;2.77;;;;;;;15.25;100.00;96994.88;6211601;28;20225;-46
2023/08/05 07:19:40;;;;;;;3.27;2.97;;;;;;;15.29;100.00;96998.56;6204923;28;20243;-45
2023/08/05 07:22:42;;;;;;;2.93;2.63;;;;;;;15.31;100.00;97006.34;6205890;28;20656;-46
2023/08/05 07:25:45;;;;;;;3.20;2.90;;;;;;;15.34;100.00;96986.97;6206730;28;20259;-45
2023/08/05 07:28:48;;;;;;;3.00;2.70;;;;;;;15.32;100.00;96981.91;6205490;28;20240;-47
2023/08/05 07:31:51;;;;;;;3.97;3.40;;;;;;;15.35;100.00;96989.38;6212091;28;20236;-48
2023/08/05 07:34:55;;;;;;;2.90;2.70;;;;;;;15.36;100.00;96990.16;6190680;28;20233;-44
2023/08/05 07:37:58;;;;;;;4.13;2.80;;;;;;;15.32;100.00;96986.44;6206729;28;20236;-47
2023/08/05 07:41:01;;;;;;;2.80;2.60;;;;;;;15.28;100.00;96988.16;6206402;28;20228;-47
2023/08/05 07:44:04;;;;;;;2.60;2.40;;;;;;;15.25;100.00;96977.97;6206799;28;20221;-46
2023/08/05 07:47:06;;;;;;;2.77;2.50;;;;;;;15.18;100.00;96971.09;6211472;28;20724;-48
2023/08/05 07:50:10;;;;;;;2.87;2.53;;;;;;;15.27;100.00;96986.53;6205924;28;20221;-42
2023/08/05 07:53:14;;;;;;;2.60;2.40;;;;;;;15.31;100.00;96992.91;6206494;28;20327;-42
2023/08/05 07:56:16;;;;;;;3.20;2.47;;;;;;;15.34;100.00;96990.47;6205048;28;20224;-41
2023/08/05 07:59:20;;;;;;;3.73;3.03;;;;;;;15.18;100.00;96971.09;6205981;28;20235;-41
2023/08/05 08:02:24;;;;;;;2.93;2.73;;;;;;;15.38;100.00;96988.00;6210942;28;20314;-41
2023/08/05 08:05:27;;;;;;;3.40;3.10;;;;;;;15.39;100.00;96993.06;6205302;28;20232;-41
2023/08/05 08:08:29;;;;;;;3.53;3.27;;;;;;;15.40;100.00;97012.66;6188025;28;20235;-42
2023/08/05 08:11:32;;;;;;;4.67;3.57;;;;;;;15.40;100.00;96996.56;6205724;28;20230;-40
2023/08/05 08:14:34;;;;;;;4.70;4.30;;;;;;;15.39;100.00;96990.38;6204857;28;20221;-40
2023/08/05 08:17:37;;;;;;;4.80;4.13;;;;;;;15.38;100.00;96979.94;6183770;28;20236;-41
2023/08/05 08:20:49;;;;;;;4.73;4.33;;;;;;;15.35;100.00;96975.94;6204365;28;20228;-40
2023/08/05 08:23:52;;;;;;;4.60;4.20;;;;;;;15.33;100.00;96977.34;6198369;28;20235;-40
2023/08/05 08:26:55;;;;;;;5.77;4.90;;;;;;;15.40;100.00;96991.97;6203885;28;20281;-40
2023/08/05 08:29:57;;;;;;;6.60;5.63;;;;;;;15.54;100.00;96994.75;6205680;28;20282;-40
2023/08/05 08:33:00;;;;;;;6.97;5.90;;;;;;;15.42;100.00;96991.72;6210574;28;20274;-41
2023/08/05 08:36:02;;;;;;;5.67;4.83;;;;;;;15.40;100.00;96988.50;6206284;28;20299;-40
2023/08/05 08:39:05;;;;;;;6.43;5.83;;;;;;;15.56;100.00;97005.97;6208396;28;20213;-40
2023/08/05 08:42:07;;;;;;;6.23;5.70;;;;;;;15.46;100.00;97001.56;6204858;28;20330;-40
2023/08/05 08:45:14;;;;;;;7.90;6.30;;;;;;;15.57;100.00;97007.59;6194688;28;20201;-40
2023/08/05 08:48:17;;;;;;;9.23;6.30;;;;;;;15.41;100.00;96987.41;6209743;28;20217;-40
2023/08/05 08:51:23;;;;;;;8.83;5.47;;;;;;;15.77;100.00;97008.44;6203954;28;20244;-40
2023/08/05 08:54:29;;;;;;;5.83;4.83;;;;;;;15.68;100.00;97014.44;6206142;28;20239;-40
2023/08/05 08:57:32;;;;;;;5.70;5.17;;;;;;;15.71;100.00;97011.19;6205393;28;20240;-41
2023/08/05 09:00:37;;;;;;;5.67;5.17;;;;;;;15.57;100.00;97006.81;6204673;28;20243;-41
2023/08/05 09:03:42;;;;;;;6.33;5.73;;;;;;;15.62;100.00;97033.59;6179998;28;20235;-41
2023/08/05 09:06:48;;;;;;;6.07;5.57;;;;;;;15.64;100.00;97021.47;6205663;28;20366;-44
2023/08/05 09:09:51;;;;;;;6.33;5.43;;;;;;;15.58;100.00;97006.50;6203761;28;20327;-40
2023/08/05 09:12:57;;;;;;;5.70;5.03;;;;;;;15.57;100.00;97006.81;6204979;28;20238;-40
2023/08/05 09:16:00;;;;;;;5.40;4.90;;;;;;;15.58;100.00;96998.44;6205321;28;20232;-40
2023/08/05 09:19:02;;;;;;;4.97;4.20;;;;;;;15.67;100.00;96994.06;6203556;28;20470;-40
2023/08/05 09:22:06;;;;;;;3.80;3.50;;;;;;;15.51;100.00;96973.84;6199375;28;20235;-40
2023/08/05 09:25:10;;;;;;;5.97;4.10;;;;;;;15.66;100.00;96994.31;6204155;28;20252;-40
2023/08/05 09:28:12;;;;;;;3.77;3.40;;;;;;;15.70;100.00;96990.78;6193452;28;20270;-41
2023/08/05 09:31:16;;;;;;;4.20;3.80;;;;;;;15.70;100.00;96995.34;6203680;28;20228;-40
2023/08/05 09:34:18;;;;;;;3.43;3.13;;;;;;;15.76;100.00;97002.22;6211197;28;20606;-40
2023/08/05 09:37:21;;;;;;;2.90;2.53;;;;;;;15.80;100.00;97005.13;6203906;28;20232;-40
2023/08/05 09:40:32;;;;;;;2.60;2.40;;;;;;;15.86;100.00;96988.69;6200652;28;20251;-41
2023/08/05 09:43:40;;;;;;;3.00;2.77;;;;;;;15.78;100.00;96991.22;6203976;28;20312;-39
2023/08/05 09:46:45;;;;;;;2.80;2.43;;;;;;;15.83;100.00;97010.72;6201809;28;20374;-42
2023/08/05 09:49:52;;;;;;;2.10;1.93;;;;;;;15.90;100.00;97013.84;6215035;28;20308;-43
2023/08/05 09:52:59;;;;;;;2.43;2.23;;;;;;;15.82;100.00;97011.03;6195261;28;20298;-43
2023/08/05 09:56:04;;;;;;;1.90;1.70;;;;;;;15.55;100.00;96974.84;6204465;28;20233;-44
2023/08/05 09:59:12;;;;;;;2.07;1.87;;;;;;;15.59;100.00;96983.94;6202458;28;20232;-43
2023/08/05 10:02:25;;;;;;;1.67;1.57;;;;;;;15.70;100.00;96995.34;6205140;28;20229;-41
2023/08/05 10:05:29;;;;;;;1.57;1.47;;;;;;;15.33;100.00;96948.63;6209621;28;20229;-42
2023/08/05 10:08:33;;;;;;;1.57;1.40;;;;;;;15.67;100.00;97026.28;6203513;28;20236;-42
2023/08/05 10:11:37;;;;;;;1.17;1.03;;;;;;;15.64;100.00;97001.88;6178595;28;20234;-43
2023/08/05 10:14:39;;;;;;;4.07;1.80;;;;;;;15.66;100.00;96936.09;6203120;28;20236;-42
2023/08/05 10:17:42;;;;;;;3.10;1.67;;;;;;;15.63;100.00;96939.34;6203233;28;20228;-45
2023/08/05 10:20:52;;;;;;;1.23;1.13;;;;;;;15.64;100.00;96964.28;6211069;28;20596;-46
2023/08/05 10:24:01;;;;;;;2.93;1.40;;;;;;;15.56;100.00;96943.44;6206531;28;20228;-42
2023/08/05 10:27:09;;;;;;;1.53;1.30;;;;;;;15.57;100.00;96951.22;6204112;28;20281;-43
2023/08/05 10:30:14;;;;;;;2.00;1.30;;;;;;;15.81;100.00;96950.34;6206167;28;20259;-42
2023/08/05 10:33:17;;;;;;;1.30;1.20;;;;;;;15.67;100.00;96932.31;6210156;28;20217;-43
2023/08/05 10:36:20;;;;;;;1.30;1.20;;;;;;;15.73;100.00;96923.06;6215269;28;20217;-45
2023/08/05 10:39:40;;;;;;;1.43;1.33;;;;;;;15.73;100.00;96917.69;6206254;28;20658;-43
2023/08/05 10:42:42;;;;;;;2.30;1.30;;;;;;;15.67;100.00;96945.72;6206681;28;20245;-44
2023/08/05 10:45:47;;;;;;;1.50;1.40;;;;;;;15.56;100.00;96946.13;6207864;28;20263;-44
2023/08/05 10:48:49;;;;;;;1.40;1.20;;;;;;;15.42;100.00;96964.88;6205845;28;20252;-44
2023/08/05 10:51:53;;;;;;;1.40;1.30;;;;;;;15.56;100.00;97037.41;6202102;28;20220;-45
2023/08/05 10:54:56;;;;;;;2.07;1.47;;;;;;;15.52;100.00;97021.09;6207508;28;20321;-43
2023/08/05 10:57:58;;;;;;;2.90;1.73;;;;;;;15.53;100.00;96936.78;6204473;28;20236;-43
2023/08/05 11:01:03;;;;;;;3.30;1.97;;;;;;;15.53;100.00;96917.19;6208735;28;20319;-43
2023/08/05 11:04:28;;;;;;;4.17;1.80;;;;;;;15.44;100.00;96919.72;6183662;28;20240;-44
2023/08/05 11:07:32;;;;;;;1.73;1.37;;;;;;;15.56;100.00;96928.13;6213700;28;20224;-44
2023/08/05 11:10:35;;;;;;;1.50;1.40;;;;;;;15.64;100.00;96924.03;6208458;28;20271;-45
2023/08/05 11:13:41;;;;;;;4.87;1.37;;;;;;;15.62;100.00;96931.56;6208247;28;20718;-44
2023/08/05 11:16:45;;;;;;;1.83;1.27;;;;;;;15.65;100.00;96930.97;6193988;28;20239;-44
2023/08/05 11:19:52;;;;;;;1.20;1.10;;;;;;;15.42;100.00;96893.19;6207237;28;20604;-45
2023/08/05 11:22:54;;;;;;;1.30;1.20;;;;;;;15.55;100.00;96931.91;6213677;28;20236;-45
2023/08/05 11:26:01;;;;;;;1.80;1.40;;;;;;;15.58;100.00;96919.81;6207373;28;20315;-45
2023/08/05 11:29:03;;;;;;;2.47;1.40;;;;;;;15.56;100.00;96952.28;6205804;28;20232;-45
2023/08/05 11:32:06;;;;;;;1.57;1.47;;;;;;;15.51;100.00;96994.53;6206666;28;20228;-45
2023/08/05 11:35:08;;;;;;;1.23;1.17;;;;;;;15.46;100.00;97000.75;6209607;28;20743;-48
2023/08/05 11:38:11;;;;;;;2.63;1.20;;;;;;;15.46;100.00;96980.06;6185512;28;20319;-46
2023/08/05 11:41:13;;;;;;;2.03;1.20;;;;;;;15.49;100.00;96944.59;6206445;28;20244;-47
2023/08/05 11:44:17;;;;;;;2.27;0.90;;;;;;;15.46;100.00;96950.53;6206801;28;20235;-45
2023/08/05 11:47:19;;;;;;;2.93;1.13;;;;;;;15.51;100.00;96962.31;6208518;28;20274;-44
2023/08/05 11:50:34;;;;;;;2.67;1.20;;;;;;;15.51;100.00;96979.22;6207588;28;20632;-47
2023/08/05 11:53:47;;;;;;;2.93;1.30;;;;;;;15.48;100.00;97015.50;6206765;28;20229;-47
2023/08/05 11:56:50;;;;;;;2.97;1.30;;;;;;;15.44;100.00;97041.31;6204246;28;20241;-48
2023/08/05 11:59:55;;;;;;;1.33;1.00;;;;;;;15.43;100.00;97060.41;6207197;28;20235;-47
2023/08/05 12:02:57;;;;;;;0.93;0.93;;;;;;;15.41;100.00;97036.50;6206575;28;20228;-44
2023/08/05 12:06:03;;;;;;;1.77;0.90;;;;;;;15.48;100.00;97002.06;6206449;28;20251;-44
2023/08/05 12:09:07;;;;;;;3.03;1.10;;;;;;;15.48;100.00;96961.81;6208722;28;20306;-44
2023/08/05 12:12:16;;;;;;;1.07;1.00;;;;;;;15.51;100.00;96963.09;6204171;28;20212;-45
2023/08/05 12:15:25;;;;;;;0.90;0.90;;;;;;;15.51;100.00;96981.91;6205239;28;20228;-45
2023/08/05 12:18:29;;;;;;;1.40;0.90;;;;;;;15.48;100.00;96985.97;6202045;28;20757;-44
2023/08/05 12:21:32;;;;;;;0.90;0.70;;;;;;;15.51;100.00;96991.84;6204732;28;20359;-47
2023/08/05 12:24:39;;;;;;;0.80;0.80;;;;;;;15.51;100.00;96976.53;6202461;28;20228;-45
2023/08/05 12:27:43;;;;;;;0.80;0.60;;;;;;;15.64;100.00;96967.78;6203518;28;20240;-46
2023/08/05 12:30:45;;;;;;;0.90;0.70;;;;;;;15.63;100.00;96960.81;6205795;28;20241;-45
2023/08/05 12:33:47;;;;;;;0.40;0.40;;;;;;;15.70;100.00;96958.53;6205543;28;20247;-44
2023/08/05 12:36:49;;;;;;;0.40;0.40;;;;;;;15.61;100.00;96954.09;6205893;28;20236;-46
2023/08/05 12:39:51;;;;;;;0.50;0.47;;;;;;;15.70;100.00;96958.53;6204977;28;20232;-44
2023/08/05 12:42:54;;;;;;;0.73;0.57;;;;;;;15.76;100.00;96959.25;6204437;28;20830;-46
2023/08/05 12:45:57;;;;;;;1.90;0.70;;;;;;;15.77;100.00;96965.47;6205383;28;20240;-46
2023/08/05 12:48:59;;;;;;;0.70;0.50;;;;;;;15.73;100.00;96966.03;6204231;28;20239;-44
2023/08/05 12:52:05;;;;;;;0.60;0.60;;;;;;;15.73;100.00;96962.56;6206104;28;20313;-44
2023/08/05 12:55:08;;;;;;;0.80;0.80;;;;;;;15.68;100.00;96968.78;6205293;28;20241;-43
2023/08/05 12:58:11;;;;;;;0.60;0.60;;;;;;;15.72;100.00;96977.88;6205077;28;20749;-45
2023/08/05 13:01:13;;;;;;;1.60;0.70;;;;;;;15.81;100.00;96983.38;6207708;28;20288;-45
2023/08/05 13:04:15;;;;;;;0.87;0.87;;;;;;;15.74;100.00;96982.94;6203681;28;20875;-44
2023/08/05 13:07:19;;;;;;;0.80;0.80;;;;;;;15.70;100.00;96987.28;6204762;28;20602;-45
2023/08/05 13:10:43;;;;;;;1.80;1.10;;;;;;;15.78;100.00;96983.16;6201835;28;20244;-45
2023/08/05 13:13:46;;;;;;;0.90;0.90;;;;;;;15.60;100.00;96965.94;6203400;28;20243;-43
2023/08/05 13:16:48;;;;;;;1.40;1.30;;;;;;;15.66;100.00;96980.91;6205050;28;20247;-44
2023/08/05 13:19:50;;;;;;;2.13;1.30;;;;;;;15.76;100.00;96993.38;6204603;28;20236;-46
2023/08/05 13:22:52;;;;;;;1.13;1.13;;;;;;;15.68;100.00;96976.06;6204083;28;20769;-45
2023/08/05 13:25:55;;;;;;;1.23;1.13;;;;;;;15.69;100.00;96977.66;6204538;28;20236;-43
2023/08/05 13:28:57;;;;;;;1.57;1.43;;;;;;;15.73;100.00;96984.03;6203298;28;20253;-45
2023/08/05 13:31:59;;;;;;;1.20;1.20;;;;;;;15.83;100.00;96981.19;6205353;28;20769;-44
2023/08/05 13:35:02;;;;;;;1.70;1.57;;;;;;;15.80;100.00;96946.84;6201442;28;20246;-45
2023/08/05 13:38:05;;;;;;;1.50;1.40;;;;;;;15.87;100.00;96951.88;6208452;28;20232;-44
2023/08/05 13:41:07;;;;;;;1.40;1.30;;;;;;;15.88;100.00;96962.31;6204130;28;20243;-47
2023/08/05 13:44:10;;;;;;;1.17;1.17;;;;;;;15.94;100.00;96949.59;6200953;28;20236;-46
2023/08/05 13:47:12;;;;;;;1.30;1.30;;;;;;;15.93;100.00;96961.44;6204774;28;20225;-45
2023/08/05 13:50:16;;;;;;;1.10;1.10;;;;;;;15.77;100.00;96930.53;6204005;28;20317;-45
2023/08/05 13:53:19;;;;;;;1.50;1.40;;;;;;;15.91;100.00;96947.47;6199847;28;20243;-46
2023/08/05 13:56:21;;;;;;;2.73;1.80;;;;;;;16.00;100.00;96941.13;6200624;28;20603;-46
2023/08/05 13:59:23;;;;;;;1.40;1.30;;;;;;;16.03;100.00;96936.28;6203720;28;20602;-46
2023/08/05 14:02:26;;;;;;;1.40;1.30;;;;;;;16.12;100.00;96934.53;6202840;28;20780;-49
2023/08/05 14:05:29;;;;;;;1.33;1.23;;;;;;;16.14;100.00;96918.88;6203094;28;20228;-46
2023/08/05 14:08:31;;;;;;;1.40;1.30;;;;;;;16.07;100.00;96930.03;6204448;28;20243;-45
2023/08/05 14:11:36;;;;;;;1.20;1.10;;;;;;;16.13;100.00;96912.72;6204949;28;20765;-44
2023/08/05 14:14:39;;;;;;;2.77;1.03;;;;;;;16.15;100.00;96912.41;6206297;28;20605;-45